Ever Develop — 3FLF8 — position and weather

sailwx.info

Track history (hours):
 
Tides and Currents Weather Stations Pressure Air Temp Water Temp Dewpoint Dewpoint Depression Visibility Wind Speed Wind Dir Waves Ship Positions

Ever Develop

Last reported at 2015-Jan-23 17:29 UTC. Time now 2015-Feb-01 21:15 UTC.
Position N 38°55' W 072°13'.
Warning: this ship's position is 9 days out of date.

Type: Ship (hazmat cat D). MMSI: 356391000.

Date/timePositionNaut miles runAvg speedWind from/ knotsBaromVisibWave heightAir tempDewpointWater temp
2015-Jan-23 17:29N 38°55' W 072°13'1415.6
2015-Jan-23 16:33N 39°06' W 072°24'1716.2
2015-Jan-23 15:30N 39°19' W 072°38'1515.6
2015-Jan-23 14:34N 39°31' W 072°50'1615.6
2015-Jan-23 13:32N 39°43' W 073°03'1615.4
2015-Jan-23 12:29N 39°56' W 073°16'1415.3
2015-Jan-23 11:33N 40°07' W 073°28'1312.6
2015-Jan-23 10:33N 40°17' W 073°38'10 9.5
2015-Jan-23 09:33N 40°24' W 073°46'8 8.3
2015-Jan-23 08:33N 40°29' W 073°55'1111.3
2015-Jan-23 07:33N 40°38' W 074°03'4 4.0
2015-Jan-23 06:33N 40°40' W 074°08'1 0.9
2015-Jan-23 05:32N 40°41' W 074°09'0 0.0
2015-Jan-23 04:19N 40°41' W 074°09'0 0.0
2015-Jan-23 03:25N 40°41' W 074°09'0 0.0
2015-Jan-23 02:31N 40°41' W 074°09'0 0.0
2015-Jan-23 01:31N 40°41' W 074°09'0 0.0
2015-Jan-23 00:31N 40°41' W 074°09'0 0.0
2015-Jan-22 23:31N 40°41' W 074°09'0 0.0
2015-Jan-22 22:31N 40°41' W 074°09'0 0.0
2015-Jan-22 21:25N 40°41' W 074°09'0 0.0
2015-Jan-22 20:31N 40°41' W 074°09'0 0.0
2015-Jan-22 19:31N 40°41' W 074°09'0 0.0
2015-Jan-22 18:19N 40°41' W 074°09'0 0.0
2015-Jan-22 17:31N 40°41' W 074°09'1 0.9
2015-Jan-22 16:33N 40°40' W 074°08'4 3.7
2015-Jan-22 15:33N 40°39' W 074°04'1211.6
2015-Jan-22 14:33N 40°29' W 073°55'8 7.6
2015-Jan-22 13:33N 40°24' W 073°48'182 4.6
2015-Jan-20 22:20N 38°00' W 076°12'4119.7
2015-Jan-20 20:16N 38°40' W 076°25'1217.6
2015-Jan-20 19:33N 38°52' W 076°24'1413.9
2015-Jan-20 18:33N 39°06' W 076°24'10 9.5
2015-Jan-20 17:33N 39°13' W 076°32'2 2.1
2015-Jan-20 16:33N 39°15' W 076°33'0 0.0
2015-Jan-20 15:33N 39°15' W 076°33'0 0.0
2015-Jan-20 14:33N 39°15' W 076°33'0 0.0
2015-Jan-20 13:33N 39°15' W 076°33'0 0.0
2015-Jan-20 12:30N 39°15' W 076°33'0 0.0
2015-Jan-20 11:33N 39°15' W 076°33'0 0.0
2015-Jan-20 10:33N 39°15' W 076°33'0 0.0
2015-Jan-20 09:33N 39°15' W 076°33'0 0.0
2015-Jan-20 08:33N 39°15' W 076°33'0 0.0
2015-Jan-20 07:33N 39°15' W 076°33'0 0.0
2015-Jan-20 06:33N 39°15' W 076°33'0 0.0
2015-Jan-20 05:30N 39°15' W 076°33'0 0.0
2015-Jan-20 04:33N 39°15' W 076°33'0 0.0
2015-Jan-20 03:33N 39°15' W 076°33'0 0.0
2015-Jan-20 02:33N 39°15' W 076°33'0 0.0
2015-Jan-20 01:33N 39°15' W 076°33'0 0.0
2015-Jan-20 00:34N 39°15' W 076°33'0 0.0
2015-Jan-19 23:33N 39°15' W 076°33'0 0.3
2015-Jan-19 22:33N 39°15' W 076°33'5 4.7
2015-Jan-19 21:33N 39°11' W 076°29'1212.0
2015-Jan-19 20:33N 39°00' W 076°23'1818.1
2015-Jan-19 19:33N 38°43' W 076°26'2620.1
2015-Jan-19 18:16N 38°17' W 076°17'1520.5
2015-Jan-19 17:33N 38°03' W 076°13'  
Track history (hours):
 
Tides and Currents Weather Stations Pressure Air Temp Water Temp Dewpoint Dewpoint Depression Visibility Wind Speed Wind Dir Waves Ship Positions

Ever Develop

Last reported at 2015-Jan-23 17:29 UTC. Time now 2015-Feb-01 21:15 UTC.
Position N 38°55' W 072°13'.
Warning: this ship's position is 9 days out of date.

Type: Ship (hazmat cat D). MMSI: 356391000.

Date/timePositionNaut miles runAvg speedWind from/ knotsBaromVisibWave heightAir tempDewpointWater temp
2015-Jan-23 17:29N 38°55' W 072°13'1415.6
2015-Jan-23 16:33N 39°06' W 072°24'1716.2
2015-Jan-23 15:30N 39°19' W 072°38'1515.6
2015-Jan-23 14:34N 39°31' W 072°50'1615.6
2015-Jan-23 13:32N 39°43' W 073°03'1615.4
2015-Jan-23 12:29N 39°56' W 073°16'1415.3
2015-Jan-23 11:33N 40°07' W 073°28'1312.6
2015-Jan-23 10:33N 40°17' W 073°38'10 9.5
2015-Jan-23 09:33N 40°24' W 073°46'8 8.3
2015-Jan-23 08:33N 40°29' W 073°55'1111.3
2015-Jan-23 07:33N 40°38' W 074°03'4 4.0
2015-Jan-23 06:33N 40°40' W 074°08'1 0.9
2015-Jan-23 05:32N 40°41' W 074°09'0 0.0
2015-Jan-23 04:19N 40°41' W 074°09'0 0.0
2015-Jan-23 03:25N 40°41' W 074°09'0 0.0
2015-Jan-23 02:31N 40°41' W 074°09'0 0.0
2015-Jan-23 01:31N 40°41' W 074°09'0 0.0
2015-Jan-23 00:31N 40°41' W 074°09'0 0.0
2015-Jan-22 23:31N 40°41' W 074°09'0 0.0
2015-Jan-22 22:31N 40°41' W 074°09'0 0.0
2015-Jan-22 21:25N 40°41' W 074°09'0 0.0
2015-Jan-22 20:31N 40°41' W 074°09'0 0.0
2015-Jan-22 19:31N 40°41' W 074°09'0 0.0
2015-Jan-22 18:19N 40°41' W 074°09'0 0.0
2015-Jan-22 17:31N 40°41' W 074°09'1 0.9
2015-Jan-22 16:33N 40°40' W 074°08'4 3.7
2015-Jan-22 15:33N 40°39' W 074°04'1211.6
2015-Jan-22 14:33N 40°29' W 073°55'8 7.6
2015-Jan-22 13:33N 40°24' W 073°48'182 4.6
2015-Jan-20 22:20N 38°00' W 076°12'4119.7
2015-Jan-20 20:16N 38°40' W 076°25'1217.6
2015-Jan-20 19:33N 38°52' W 076°24'1413.9
2015-Jan-20 18:33N 39°06' W 076°24'10 9.5
2015-Jan-20 17:33N 39°13' W 076°32'2 2.1
2015-Jan-20 16:33N 39°15' W 076°33'0 0.0
2015-Jan-20 15:33N 39°15' W 076°33'0 0.0
2015-Jan-20 14:33N 39°15' W 076°33'0 0.0
2015-Jan-20 13:33N 39°15' W 076°33'0 0.0
2015-Jan-20 12:30N 39°15' W 076°33'0 0.0
2015-Jan-20 11:33N 39°15' W 076°33'0 0.0
2015-Jan-20 10:33N 39°15' W 076°33'0 0.0
2015-Jan-20 09:33N 39°15' W 076°33'0 0.0
2015-Jan-20 08:33N 39°15' W 076°33'0 0.0
2015-Jan-20 07:33N 39°15' W 076°33'0 0.0
2015-Jan-20 06:33N 39°15' W 076°33'0 0.0
2015-Jan-20 05:30N 39°15' W 076°33'0 0.0
2015-Jan-20 04:33N 39°15' W 076°33'0 0.0
2015-Jan-20 03:33N 39°15' W 076°33'0 0.0
2015-Jan-20 02:33N 39°15' W 076°33'0 0.0
2015-Jan-20 01:33N 39°15' W 076°33'0 0.0
2015-Jan-20 00:34N 39°15' W 076°33'0 0.0
2015-Jan-19 23:33N 39°15' W 076°33'0 0.3
2015-Jan-19 22:33N 39°15' W 076°33'5 4.7
2015-Jan-19 21:33N 39°11' W 076°29'1212.0
2015-Jan-19 20:33N 39°00' W 076°23'1818.1
2015-Jan-19 19:33N 38°43' W 076°26'2620.1
2015-Jan-19 18:16N 38°17' W 076°17'1520.5
2015-Jan-19 17:33N 38°03' W 076°13'  

Dump ship's entire track history